Time;durP1;ratioP1;P1;durP2;ratioP2;P2;SDS_P1;SDS_P2;PMS_P1;PMS_P2;Temp;Humidity;BMP_temperature;BMP_pressure;BME280_temperature;BME280_humidity;BME280_pressure;Samples;Min_cycle;Max_cycle;Signal;HPM_P1;HPM_P2
2021/05/21 00:01:04;;;;;;;3.47;1.43;;;;;;;;;;5095711;28;20300;-57
2021/05/21 00:03:30;;;;;;;3.83;1.30;;;;;;;;;;5095851;28;20237;-59
2021/05/21 00:05:57;;;;;;;2.17;1.30;;;;;;;;;;5095367;28;20224;-59
2021/05/21 00:08:23;;;;;;;5.23;1.63;;;;;;;;;;5095559;28;20204;-54
2021/05/21 00:10:50;;;;;;;3.13;1.17;;;;;;;;;;5095583;28;20207;-59
2021/05/21 00:13:16;;;;;;;1.87;1.20;;;;;;;;;;5095548;28;20660;-57
2021/05/21 00:15:43;;;;;;;2.10;1.33;;;;;;;;;;5095537;28;20285;-59
2021/05/21 00:18:10;;;;;;;3.87;1.60;;;;;;;;;;5095511;28;20204;-59
2021/05/21 00:20:37;;;;;;;3.93;1.37;;;;;;;;;;5095062;28;20270;-57
2021/05/21 00:23:03;;;;;;;4.10;1.30;;;;;;;;;;5095518;28;20221;-58
2021/05/21 00:25:30;;;;;;;2.90;1.40;;;;;;;;;;5095463;28;20220;-59
2021/05/21 00:27:56;;;;;;;6.50;1.43;;;;;;;;;;5095336;28;20623;-56
2021/05/21 00:30:23;;;;;;;1.83;1.23;;;;;;;;;;5095097;28;20257;-58
2021/05/21 00:32:49;;;;;;;2.73;1.10;;;;;;;;;;5095191;28;20230;-59
2021/05/21 00:35:17;;;;;;;1.87;1.20;;;;;;;;;;5094872;28;20647;-58
2021/05/21 00:37:43;;;;;;;1.37;1.10;;;;;;;;;;5095206;28;20208;-59
2021/05/21 00:40:10;;;;;;;5.47;1.47;;;;;;;;;;5095179;28;20224;-59
2021/05/21 00:42:37;;;;;;;2.43;1.30;;;;;;;;;;5095240;28;20823;-59
2021/05/21 00:45:03;;;;;;;2.40;1.57;;;;;;;;;;5095025;28;20228;-59
2021/05/21 00:47:30;;;;;;;2.33;1.37;;;;;;;;;;5095006;28;20200;-59
2021/05/21 00:49:57;;;;;;;3.03;1.37;;;;;;;;;;5095122;28;20648;-59
2021/05/21 00:52:24;;;;;;;1.90;1.20;;;;;;;;;;5094758;28;20668;-59
2021/05/21 00:54:52;;;;;;;3.73;1.50;;;;;;;;;;5094832;28;20228;-59
2021/05/21 00:57:18;;;;;;;2.83;1.30;;;;;;;;;;5094279;28;20684;-59
2021/05/21 00:59:45;;;;;;;2.77;1.20;;;;;;;;;;5094673;28;20681;-59
2021/05/21 01:02:12;;;;;;;3.63;1.50;;;;;;;;;;5094504;28;20201;-58
2021/05/21 01:04:38;;;;;;;3.20;1.33;;;;;;;;;;5094927;28;20794;-59
2021/05/21 01:07:05;;;;;;;2.93;1.30;;;;;;;;;;5094966;28;20220;-59
2021/05/21 01:09:32;;;;;;;1.97;1.20;;;;;;;;;;5094949;28;20204;-59
2021/05/21 01:11:59;;;;;;;2.40;1.47;;;;;;;;;;5094413;28;20672;-59
2021/05/21 01:14:25;;;;;;;3.40;1.33;;;;;;;;;;5094407;28;20232;-58
2021/05/21 01:16:52;;;;;;;1.63;1.20;;;;;;;;;;5094461;28;20253;-58
2021/05/21 01:19:19;;;;;;;1.83;1.20;;;;;;;;;;5094644;28;20208;-58
2021/05/21 01:21:46;;;;;;;3.47;1.17;;;;;;;;;;5094320;28;20208;-59
2021/05/21 01:24:13;;;;;;;4.20;1.23;;;;;;;;;;5093883;28;20235;-58
2021/05/21 01:26:40;;;;;;;3.13;1.50;;;;;;;;;;5093955;28;20673;-55
2021/05/21 01:29:06;;;;;;;1.37;1.20;;;;;;;;;;5094030;28;20208;-58
2021/05/21 01:31:33;;;;;;;2.20;1.20;;;;;;;;;;5094063;28;20261;-58
2021/05/21 01:33:59;;;;;;;2.83;1.60;;;;;;;;;;5093957;28;20704;-54
2021/05/21 01:36:26;;;;;;;2.70;1.30;;;;;;;;;;5093974;28;20226;-59
2021/05/21 01:38:57;;;;;;;4.63;1.40;;;;;;;;;;5093860;28;20212;-57
2021/05/21 01:41:24;;;;;;;1.30;1.10;;;;;;;;;;5093711;28;20200;-56
2021/05/21 01:43:51;;;;;;;2.87;1.30;;;;;;;;;;5093423;28;20700;-56
2021/05/21 01:46:18;;;;;;;1.57;1.03;;;;;;;;;;5094007;28;20260;-58
2021/05/21 01:48:45;;;;;;;3.00;1.57;;;;;;;;;;5093618;28;20208;-58
2021/05/21 01:51:12;;;;;;;2.57;1.20;;;;;;;;;;5093612;28;20631;-56
2021/05/21 01:53:38;;;;;;;5.77;1.60;;;;;;;;;;5093527;28;20203;-56
2021/05/21 01:56:06;;;;;;;2.10;0.93;;;;;;;;;;5093579;28;20732;-57
2021/05/21 01:58:33;;;;;;;2.67;1.10;;;;;;;;;;5093328;28;20219;-56
2021/05/21 02:00:59;;;;;;;3.30;1.20;;;;;;;;;;5093298;28;20574;-56
2021/05/21 02:03:27;;;;;;;2.03;1.30;;;;;;;;;;5093438;28;20220;-59
2021/05/21 02:05:54;;;;;;;3.23;1.60;;;;;;;;;;5093701;28;20289;-59
2021/05/21 02:08:22;;;;;;;3.00;1.60;;;;;;;;;;5092549;28;20204;-59
2021/05/21 02:10:48;;;;;;;1.57;1.10;;;;;;;;;;5093551;28;20551;-59
2021/05/21 02:13:16;;;;;;;1.37;1.27;;;;;;;;;;5093372;28;20227;-59
2021/05/21 02:15:42;;;;;;;2.97;1.50;;;;;;;;;;5093184;28;20232;-59
2021/05/21 02:18:09;;;;;;;4.00;1.20;;;;;;;;;;5093394;28;20584;-59
2021/05/21 02:20:35;;;;;;;3.97;1.27;;;;;;;;;;5093142;28;20329;-59
2021/05/21 02:23:03;;;;;;;1.90;1.40;;;;;;;;;;5093028;28;20659;-59
2021/05/21 02:25:30;;;;;;;1.83;1.20;;;;;;;;;;5093036;28;20632;-55
2021/05/21 02:27:56;;;;;;;2.33;1.53;;;;;;;;;;5093293;28;20201;-58
2021/05/21 02:30:24;;;;;;;3.50;1.57;;;;;;;;;;5093189;28;20211;-58
2021/05/21 02:32:50;;;;;;;3.73;1.33;;;;;;;;;;5093135;28;20201;-58
2021/05/21 02:35:17;;;;;;;1.90;1.33;;;;;;;;;;5092958;28;20224;-58
2021/05/21 02:37:43;;;;;;;2.77;1.30;;;;;;;;;;5092770;28;20204;-53
2021/05/21 02:40:11;;;;;;;2.27;1.37;;;;;;;;;;5092411;28;20212;-56
2021/05/21 02:42:38;;;;;;;3.17;1.47;;;;;;;;;;5092766;28;20220;-51
2021/05/21 02:45:05;;;;;;;1.80;1.20;;;;;;;;;;5092696;28;20228;-54
2021/05/21 02:47:33;;;;;;;1.90;1.20;;;;;;;;;;5092663;28;20584;-53
2021/05/21 02:49:59;;;;;;;1.70;1.40;;;;;;;;;;5092440;28;20204;-55
2021/05/21 02:52:26;;;;;;;2.03;1.10;;;;;;;;;;5092470;28;20257;-56
2021/05/21 02:54:53;;;;;;;2.33;1.17;;;;;;;;;;5092273;28;20259;-51
2021/05/21 02:57:21;;;;;;;1.47;1.03;;;;;;;;;;5092631;28;20204;-54
2021/05/21 02:59:48;;;;;;;1.80;1.13;;;;;;;;;;5092179;28;20210;-58
2021/05/21 03:02:15;;;;;;;2.03;1.40;;;;;;;;;;5092646;28;20207;-58
2021/05/21 03:04:42;;;;;;;4.40;1.73;;;;;;;;;;5092598;28;20598;-51
2021/05/21 03:07:09;;;;;;;3.30;1.73;;;;;;;;;;5092478;28;20212;-58
2021/05/21 03:09:35;;;;;;;2.87;1.53;;;;;;;;;;5095345;28;20273;-55
2021/05/21 03:12:02;;;;;;;6.00;1.40;;;;;;;;;;5093854;28;20208;-58
2021/05/21 03:14:28;;;;;;;2.73;1.43;;;;;;;;;;5093633;28;20235;-56
2021/05/21 03:16:55;;;;;;;1.60;1.20;;;;;;;;;;5092218;28;20584;-57
2021/05/21 03:19:21;;;;;;;4.70;1.20;;;;;;;;;;5091956;28;20211;-56
2021/05/21 03:21:49;;;;;;;3.47;1.30;;;;;;;;;;5091718;28;20200;-56
2021/05/21 03:24:15;;;;;;;1.37;1.00;;;;;;;;;;5092060;28;20236;-57
2021/05/21 03:26:42;;;;;;;2.33;1.20;;;;;;;;;;5092596;28;20211;-54
2021/05/21 03:29:08;;;;;;;2.13;1.30;;;;;;;;;;5092020;28;20585;-56
2021/05/21 03:31:35;;;;;;;1.50;1.20;;;;;;;;;;5091975;28;20203;-57
2021/05/21 03:34:02;;;;;;;3.93;1.33;;;;;;;;;;5091885;28;20224;-58
2021/05/21 03:36:29;;;;;;;4.47;1.50;;;;;;;;;;5091773;28;20648;-56
2021/05/21 03:38:56;;;;;;;2.93;1.00;;;;;;;;;;5092074;28;20200;-58
2021/05/21 03:41:22;;;;;;;2.47;1.17;;;;;;;;;;5091568;28;20691;-58
2021/05/21 03:43:50;;;;;;;2.23;1.23;;;;;;;;;;5091877;28;20224;-54
2021/05/21 03:46:16;;;;;;;2.77;1.20;;;;;;;;;;5091847;28;20200;-58
2021/05/21 03:48:43;;;;;;;2.10;1.20;;;;;;;;;;5091866;28;20676;-56
2021/05/21 03:51:10;;;;;;;4.27;1.27;;;;;;;;;;5091517;28;20713;-57
2021/05/21 03:53:36;;;;;;;2.83;1.27;;;;;;;;;;5091894;28;20233;-58
2021/05/21 03:56:04;;;;;;;3.40;1.10;;;;;;;;;;5091852;28;20208;-56
2021/05/21 03:58:33;;;;;;;1.83;1.10;;;;;;;;;;5091955;28;20208;-58
2021/05/21 04:00:59;;;;;;;3.30;1.30;;;;;;;;;;5091580;28;20261;-58
2021/05/21 04:03:26;;;;;;;3.77;1.40;;;;;;;;;;5091435;28;20224;-57
2021/05/21 04:05:52;;;;;;;3.10;1.43;;;;;;;;;;5091912;28;20228;-58
2021/05/21 04:08:19;;;;;;;3.93;1.50;;;;;;;;;;5091595;28;20212;-58
2021/05/21 04:10:45;;;;;;;4.20;1.67;;;;;;;;;;5091596;28;20211;-59
2021/05/21 04:13:13;;;;;;;1.67;1.23;;;;;;;;;;5091614;28;20200;-56
2021/05/21 04:15:39;;;;;;;3.10;1.20;;;;;;;;;;5091412;28;20232;-56
2021/05/21 04:18:07;;;;;;;6.37;1.30;;;;;;;;;;5091727;28;20261;-57
2021/05/21 04:20:33;;;;;;;3.43;1.30;;;;;;;;;;5089191;28;20560;-58
2021/05/21 04:23:01;;;;;;;4.77;1.40;;;;;;;;;;5091558;28;20220;-59
2021/05/21 04:25:28;;;;;;;4.27;1.17;;;;;;;;;;5090532;28;20603;-59
2021/05/21 04:27:54;;;;;;;3.77;1.40;;;;;;;;;;5090712;28;20651;-58
2021/05/21 04:30:23;;;;;;;4.47;1.70;;;;;;;;;;5091540;28;20227;-58
2021/05/21 04:32:50;;;;;;;4.20;1.40;;;;;;;;;;5095356;28;20688;-59
2021/05/21 04:35:16;;;;;;;3.43;1.20;;;;;;;;;;5095235;28;20224;-56
2021/05/21 04:37:43;;;;;;;6.97;1.40;;;;;;;;;;5095167;28;20208;-56
2021/05/21 04:40:10;;;;;;;2.47;1.30;;;;;;;;;;5094886;28;20207;-61
2021/05/21 04:42:36;;;;;;;3.03;1.20;;;;;;;;;;5092560;28;20258;-58
2021/05/21 04:45:04;;;;;;;3.60;1.27;;;;;;;;;;5094956;28;20224;-58
2021/05/21 04:47:31;;;;;;;3.20;1.40;;;;;;;;;;5095052;28;20212;-58
2021/05/21 04:49:58;;;;;;;3.20;1.53;;;;;;;;;;5094792;28;20205;-57
2021/05/21 04:52:24;;;;;;;3.00;1.30;;;;;;;;;;5094691;28;20741;-59
2021/05/21 04:54:51;;;;;;;3.30;1.30;;;;;;;;;;5094388;28;20224;-58
2021/05/21 04:57:17;;;;;;;2.97;1.40;;;;;;;;;;5094563;28;20695;-57
2021/05/21 04:59:44;;;;;;;4.27;1.90;;;;;;;;;;5094278;28;20205;-56
2021/05/21 05:02:10;;;;;;;2.67;1.20;;;;;;;;;;5095088;28;20200;-55
2021/05/21 05:04:38;;;;;;;3.23;1.30;;;;;;;;;;5094588;28;20322;-58
2021/05/21 05:07:04;;;;;;;3.13;1.20;;;;;;;;;;5094813;28;20208;-57
2021/05/21 05:09:31;;;;;;;1.93;1.43;;;;;;;;;;5094369;28;20212;-58
2021/05/21 05:11:59;;;;;;;6.40;1.40;;;;;;;;;;5094317;28;20212;-57
2021/05/21 05:14:25;;;;;;;3.33;1.20;;;;;;;;;;5093942;28;20236;-56
2021/05/21 05:16:52;;;;;;;3.20;1.20;;;;;;;;;;5094450;28;20204;-55
2021/05/21 05:19:19;;;;;;;5.17;1.30;;;;;;;;;;5094681;28;20204;-52
2021/05/21 05:21:47;;;;;;;5.97;1.37;;;;;;;;;;5094072;28;20289;-58
2021/05/21 05:24:14;;;;;;;5.63;1.30;;;;;;;;;;5094151;28;20705;-56
2021/05/21 05:26:41;;;;;;;2.90;1.30;;;;;;;;;;5094369;28;20209;-54
2021/05/21 05:29:08;;;;;;;2.70;1.10;;;;;;;;;;5094745;28;20219;-63
2021/05/21 05:31:35;;;;;;;2.97;1.10;;;;;;;;;;5093467;28;20211;-59
2021/05/21 05:34:01;;;;;;;3.93;1.50;;;;;;;;;;5094218;28;20228;-59
2021/05/21 05:36:28;;;;;;;3.67;1.53;;;;;;;;;;5094009;28;20208;-59
2021/05/21 05:38:55;;;;;;;4.60;1.83;;;;;;;;;;5090199;28;20209;-59
2021/05/21 05:41:22;;;;;;;6.73;1.47;;;;;;;;;;5092811;28;20247;-60
2021/05/21 05:43:48;;;;;;;2.17;1.17;;;;;;;;;;5092770;28;20224;-63
2021/05/21 05:46:15;;;;;;;3.60;1.30;;;;;;;;;;5093435;28;20213;-63
2021/05/21 05:48:41;;;;;;;3.83;1.70;;;;;;;;;;5093416;28;20207;-64
2021/05/21 05:51:08;;;;;;;5.73;1.67;;;;;;;;;;5092905;28;20231;-60
2021/05/21 05:53:35;;;;;;;4.60;1.47;;;;;;;;;;5093097;28;20201;-59
2021/05/21 05:56:03;;;;;;;6.00;1.90;;;;;;;;;;5093066;28;20255;-58
2021/05/21 05:58:30;;;;;;;3.57;1.50;;;;;;;;;;5093387;28;20212;-59
2021/05/21 06:00:56;;;;;;;4.13;1.40;;;;;;;;;;5092556;28;20212;-55
2021/05/21 06:03:23;;;;;;;4.13;1.17;;;;;;;;;;5093067;28;20220;-58
2021/05/21 06:05:50;;;;;;;2.97;1.27;;;;;;;;;;5092981;28;20229;-62
2021/05/21 06:08:16;;;;;;;3.67;1.30;;;;;;;;;;5092761;28;20719;-60
2021/05/21 06:10:43;;;;;;;4.23;1.90;;;;;;;;;;5092464;28;20211;-58
2021/05/21 06:13:10;;;;;;;4.17;1.33;;;;;;;;;;5092853;28;20200;-65
2021/05/21 06:15:38;;;;;;;10.00;1.50;;;;;;;;;;5092664;28;20825;-64
2021/05/21 06:18:04;;;;;;;4.30;1.57;;;;;;;;;;5092639;28;20225;-63
2021/05/21 06:20:33;;;;;;;3.80;1.67;;;;;;;;;;5092364;28;20584;-63
2021/05/21 06:23:02;;;;;;;4.80;1.23;;;;;;;;;;5092456;28;20224;-67
2021/05/21 06:25:40;;;;;;;3.57;1.60;;;;;;;;;;5092451;28;20619;-65
2021/05/21 06:28:06;;;;;;;4.10;1.50;;;;;;;;;;5092741;28;20241;-66
2021/05/21 06:30:34;;;;;;;5.00;1.60;;;;;;;;;;5091967;28;20664;-66
2021/05/21 06:33:00;;;;;;;4.53;1.50;;;;;;;;;;5092501;28;20668;-66
2021/05/21 06:35:27;;;;;;;6.40;1.70;;;;;;;;;;5092179;28;20225;-63
2021/05/21 06:37:54;;;;;;;4.80;1.50;;;;;;;;;;5092574;28;20624;-63
2021/05/21 06:40:21;;;;;;;10.20;1.53;;;;;;;;;;5092167;28;20234;-67
2021/05/21 06:42:47;;;;;;;6.20;1.70;;;;;;;;;;5092213;28;20687;-67
2021/05/21 06:45:14;;;;;;;5.03;1.50;;;;;;;;;;5092192;28;20227;-68
2021/05/21 06:47:41;;;;;;;6.47;1.73;;;;;;;;;;5092203;28;20263;-63
2021/05/21 06:50:14;;;;;;;5.33;1.77;;;;;;;;;;5091878;28;20258;-63
2021/05/21 06:52:40;;;;;;;4.53;1.30;;;;;;;;;;5092270;28;20209;-64
2021/05/21 06:55:07;;;;;;;4.13;1.63;;;;;;;;;;5091687;28;20239;-64
2021/05/21 06:57:35;;;;;;;4.47;1.57;;;;;;;;;;5092251;28;20760;-64
2021/05/21 07:00:01;;;;;;;3.80;1.47;;;;;;;;;;5091335;28;20316;-64
2021/05/21 07:02:29;;;;;;;2.97;1.47;;;;;;;;;;5092287;28;20235;-64
2021/05/21 07:04:56;;;;;;;4.20;1.50;;;;;;;;;;5094354;28;20300;-65
2021/05/21 07:07:24;;;;;;;4.20;1.47;;;;;;;;;;5093956;28;20201;-66
2021/05/21 07:09:51;;;;;;;4.80;1.80;;;;;;;;;;5092552;28;20208;-65
2021/05/21 07:12:17;;;;;;;8.33;1.83;;;;;;;;;;5095610;28;20698;-66
2021/05/21 07:14:44;;;;;;;3.90;1.40;;;;;;;;;;5097450;28;20237;-65
2021/05/21 07:17:10;;;;;;;3.60;1.63;;;;;;;;;;5097350;28;20206;-66
2021/05/21 07:19:39;;;;;;;4.57;1.60;;;;;;;;;;5091893;28;20208;-66
2021/05/21 07:22:07;;;;;;;5.13;1.57;;;;;;;;;;5091538;28;20209;-65
2021/05/21 07:24:33;;;;;;;6.03;1.70;;;;;;;;;;5091696;28;20241;-65
2021/05/21 07:27:00;;;;;;;5.50;1.40;;;;;;;;;;5091579;28;20207;-66
2021/05/21 07:29:26;;;;;;;10.30;1.87;;;;;;;;;;5091267;28;20200;-64
2021/05/21 07:31:52;;;;;;;4.83;1.60;;;;;;;;;;5091413;28;20215;-65
2021/05/21 07:34:19;;;;;;;5.30;1.70;;;;;;;;;;5091613;28;20231;-66
2021/05/21 07:36:46;;;;;;;5.47;1.70;;;;;;;;;;5091344;28;20728;-66
2021/05/21 07:39:15;;;;;;;6.63;1.90;;;;;;;;;;5091456;28;20206;-63
2021/05/21 07:41:42;;;;;;;6.40;1.87;;;;;;;;;;5091383;28;20214;-65
2021/05/21 07:44:09;;;;;;;6.10;2.03;;;;;;;;;;5091261;28;20228;-65
2021/05/21 07:46:35;;;;;;;7.37;1.97;;;;;;;;;;5091298;28;20208;-67
2021/05/21 07:49:02;;;;;;;5.50;2.43;;;;;;;;;;5091179;28;20208;-67
2021/05/21 07:51:28;;;;;;;8.30;1.70;;;;;;;;;;5091297;28;20237;-67
2021/05/21 07:53:55;;;;;;;5.83;1.90;;;;;;;;;;5091438;28;20232;-67
2021/05/21 07:56:22;;;;;;;5.17;1.40;;;;;;;;;;5091443;28;20200;-63
2021/05/21 07:58:49;;;;;;;10.37;1.83;;;;;;;;;;5090990;28;20672;-63
2021/05/21 08:01:15;;;;;;;8.47;2.30;;;;;;;;;;5091342;28;20215;-64
2021/05/21 08:03:42;;;;;;;6.80;1.93;;;;;;;;;;5091161;28;20573;-63
2021/05/21 08:06:08;;;;;;;3.47;1.43;;;;;;;;;;5092863;28;20215;-63
2021/05/21 08:08:35;;;;;;;4.07;1.63;;;;;;;;;;5095286;28;20606;-63
2021/05/21 08:11:02;;;;;;;7.43;1.70;;;;;;;;;;5094905;28;20208;-63
2021/05/21 08:13:29;;;;;;;5.97;1.87;;;;;;;;;;5095049;28;20703;-65
2021/05/21 08:15:56;;;;;;;8.20;2.13;;;;;;;;;;5094949;28;20235;-63
2021/05/21 08:18:23;;;;;;;8.60;2.10;;;;;;;;;;5095332;28;20203;-64
2021/05/21 08:20:50;;;;;;;12.30;1.97;;;;;;;;;;5094524;28;20655;-63
2021/05/21 08:23:16;;;;;;;8.43;2.33;;;;;;;;;;5095078;28;20230;-64
2021/05/21 08:25:43;;;;;;;10.03;1.97;;;;;;;;;;5094958;28;20239;-65
2021/05/21 08:28:10;;;;;;;13.17;2.13;;;;;;;;;;5094777;28;20610;-63
2021/05/21 08:30:37;;;;;;;7.63;2.43;;;;;;;;;;5094628;28;20211;-61
2021/05/21 08:33:05;;;;;;;8.47;2.23;;;;;;;;;;5094985;28;20200;-59
2021/05/21 08:35:31;;;;;;;9.77;2.10;;;;;;;;;;5095019;28;20224;-61
2021/05/21 08:37:59;;;;;;;7.97;2.37;;;;;;;;;;5094807;28;20673;-61
2021/05/21 08:40:28;;;;;;;10.57;2.30;;;;;;;;;;5094388;28;20205;-61
2021/05/21 08:42:57;;;;;;;12.60;1.93;;;;;;;;;;5094492;28;20307;-61
2021/05/21 08:45:24;;;;;;;10.07;1.70;;;;;;;;;;5094455;28;20239;-61
2021/05/21 08:47:52;;;;;;;9.30;2.10;;;;;;;;;;5094556;28;20208;-65
2021/05/21 08:50:19;;;;;;;10.40;2.30;;;;;;;;;;5094085;28;20245;-61
2021/05/21 08:52:48;;;;;;;3.90;1.10;;;;;;;;;;5094473;28;20204;-61
2021/05/21 08:55:15;;;;;;;11.17;2.37;;;;;;;;;;5094408;28;20575;-61
2021/05/21 08:57:41;;;;;;;9.23;2.10;;;;;;;;;;5094487;28;20253;-65
2021/05/21 09:00:08;;;;;;;11.20;2.20;;;;;;;;;;5093676;28;20625;-65
2021/05/21 09:02:35;;;;;;;10.50;2.13;;;;;;;;;;5094085;28;20219;-65
2021/05/21 09:05:02;;;;;;;10.00;1.93;;;;;;;;;;5093958;28;20647;-62
2021/05/21 09:07:30;;;;;;;7.47;2.00;;;;;;;;;;5093816;28;20738;-60
2021/05/21 09:09:57;;;;;;;10.67;2.40;;;;;;;;;;5093617;28;20299;-61
2021/05/21 09:12:24;;;;;;;10.00;1.70;;;;;;;;;;5094340;28;20209;-65
2021/05/21 09:15:08;;;;;;;15.00;1.90;;;;;;;;;;5093798;28;20232;-64
2021/05/21 09:17:34;;;;;;;11.43;2.10;;;;;;;;;;5093745;28;20215;-64
2021/05/21 09:20:01;;;;;;;11.17;2.13;;;;;;;;;;5092746;28;20209;-63
2021/05/21 09:22:28;;;;;;;8.20;1.43;;;;;;;;;;5094074;28;20641;-64
2021/05/21 09:24:55;;;;;;;8.97;1.77;;;;;;;;;;5093700;28;20239;-61
2021/05/21 09:27:21;;;;;;;9.10;1.70;;;;;;;;;;5093923;28;20212;-61
2021/05/21 09:29:49;;;;;;;6.20;1.50;;;;;;;;;;5093168;28;20223;-62
2021/05/21 09:32:16;;;;;;;11.80;1.70;;;;;;;;;;5093707;28;20203;-62
2021/05/21 09:34:46;;;;;;;9.97;1.83;;;;;;;;;;5093323;28;20265;-59
2021/05/21 09:37:20;;;;;;;16.50;2.87;;;;;;;;;;5093916;28;20235;-60
2021/05/21 09:40:01;;;;;;;7.00;1.73;;;;;;;;;;5093229;28;20200;-61
2021/05/21 09:42:27;;;;;;;11.93;2.20;;;;;;;;;;5093713;28;20207;-63
2021/05/21 09:44:54;;;;;;;8.83;2.30;;;;;;;;;;5093342;28;20305;-63
2021/05/21 09:47:20;;;;;;;11.00;1.87;;;;;;;;;;5093306;28;20228;-63
2021/05/21 09:49:47;;;;;;;14.27;2.03;;;;;;;;;;5092939;28;20695;-63
2021/05/21 09:52:14;;;;;;;9.93;2.17;;;;;;;;;;5093535;28;20216;-64
2021/05/21 09:54:50;;;;;;;11.50;1.87;;;;;;;;;;5093517;28;20224;-58
2021/05/21 09:57:29;;;;;;;4.40;1.30;;;;;;;;;;5093938;28;20204;-57
2021/05/21 09:59:55;;;;;;;6.10;1.80;;;;;;;;;;5093213;28;20894;-65
2021/05/21 10:02:23;;;;;;;6.50;1.60;;;;;;;;;;5093496;28;20205;-64
2021/05/21 10:04:50;;;;;;;8.87;2.00;;;;;;;;;;5093647;28;20232;-65
2021/05/21 10:07:17;;;;;;;10.33;1.63;;;;;;;;;;5094185;28;20266;-64
2021/05/21 10:09:44;;;;;;;10.97;1.97;;;;;;;;;;5093631;28;20215;-64
2021/05/21 10:12:11;;;;;;;5.63;1.73;;;;;;;;;;5092574;28;20596;-65
2021/05/21 10:14:38;;;;;;;7.80;1.83;;;;;;;;;;5092598;28;20242;-65
2021/05/21 10:17:06;;;;;;;8.33;1.83;;;;;;;;;;5092786;28;20211;-64
2021/05/21 10:19:34;;;;;;;9.27;1.90;;;;;;;;;;5092477;28;20200;-65
2021/05/21 10:22:01;;;;;;;8.03;1.63;;;;;;;;;;5092453;28;20235;-64
2021/05/21 10:24:30;;;;;;;9.37;1.80;;;;;;;;;;5092965;28;20228;-62
2021/05/21 10:26:58;;;;;;;11.87;2.03;;;;;;;;;;5092709;28;20269;-60
2021/05/21 10:29:26;;;;;;;8.10;1.73;;;;;;;;;;5091585;28;20289;-62
2021/05/21 10:31:54;;;;;;;14.73;2.80;;;;;;;;;;5092680;28;20207;-58
2021/05/21 10:34:21;;;;;;;7.57;1.60;;;;;;;;;;5092803;28;20336;-60
2021/05/21 10:36:49;;;;;;;10.90;2.10;;;;;;;;;;5092529;28;20273;-62
2021/05/21 10:39:17;;;;;;;8.83;2.03;;;;;;;;;;5092048;28;20211;-62
2021/05/21 10:41:53;;;;;;;7.17;2.13;;;;;;;;;;5092136;28;20567;-64
2021/05/21 10:44:20;;;;;;;11.03;2.17;;;;;;;;;;5092380;28;20231;-63
2021/05/21 10:46:48;;;;;;;11.17;2.00;;;;;;;;;;5092156;28;20676;-65
2021/05/21 10:49:24;;;;;;;8.33;2.03;;;;;;;;;;5092139;28;20205;-64
2021/05/21 10:51:52;;;;;;;5.37;1.83;;;;;;;;;;5091888;28;20207;-63
2021/05/21 10:54:29;;;;;;;9.03;1.93;;;;;;;;;;5092059;28;20247;-60
2021/05/21 10:56:59;;;;;;;8.60;1.83;;;;;;;;;;5092161;28;20208;-58
2021/05/21 10:59:50;;;;;;;12.37;1.90;;;;;;;;;;5091761;28;20239;-62
2021/05/21 11:02:16;;;;;;;17.87;2.90;;;;;;;;;;5092477;28;20238;-62
2021/05/21 11:04:44;;;;;;;18.40;1.80;;;;;;;;;;5091913;28;20224;-61
2021/05/21 11:07:11;;;;;;;7.53;2.07;;;;;;;;;;5092275;28;20242;-57
2021/05/21 11:09:44;;;;;;;7.23;1.77;;;;;;;;;;5091759;28;20208;-63
2021/05/21 11:12:15;;;;;;;9.20;1.73;;;;;;;;;;5096611;28;20212;-64
2021/05/21 11:14:41;;;;;;;8.00;1.53;;;;;;;;;;5095582;28;20229;-63
2021/05/21 11:17:12;;;;;;;7.50;1.77;;;;;;;;;;5091916;28;20695;-64
2021/05/21 11:19:45;;;;;;;6.00;1.70;;;;;;;;;;5097479;28;20738;-62
2021/05/21 11:22:16;;;;;;;16.63;2.13;;;;;;;;;;5097502;28;20203;-63
2021/05/21 11:24:44;;;;;;;18.77;2.90;;;;;;;;;;5097603;28;20274;-62
2021/05/21 11:27:14;;;;;;;27.13;2.63;;;;;;;;;;5090600;28;20617;-61
2021/05/21 11:29:44;;;;;;;8.60;2.30;;;;;;;;;;5091515;28;20215;-60
2021/05/21 11:32:11;;;;;;;17.93;2.17;;;;;;;;;;5091842;28;20249;-61
2021/05/21 11:34:37;;;;;;;11.30;2.27;;;;;;;;;;5091723;28;20219;-61
2021/05/21 11:37:06;;;;;;;11.77;2.43;;;;;;;;;;5092028;28;20416;-64
2021/05/21 11:39:32;;;;;;;12.20;2.03;;;;;;;;;;5091883;28;20196;-58
2021/05/21 11:41:59;;;;;;;9.60;1.90;;;;;;;;;;5096242;28;20208;-57
2021/05/21 11:44:27;;;;;;;10.70;2.13;;;;;;;;;;5096037;28;20286;-64
2021/05/21 11:46:58;;;;;;;13.80;2.13;;;;;;;;;;5096062;28;20207;-64
2021/05/21 11:49:25;;;;;;;7.23;2.30;;;;;;;;;;5095409;28;20311;-64
2021/05/21 11:51:56;;;;;;;12.33;2.67;;;;;;;;;;5095550;28;20204;-60
2021/05/21 11:54:23;;;;;;;12.97;2.07;;;;;;;;;;5095878;28;20310;-60
2021/05/21 11:56:50;;;;;;;9.20;1.73;;;;;;;;;;5095663;28;20800;-61
2021/05/21 11:59:18;;;;;;;11.83;2.07;;;;;;;;;;5095406;28;20203;-60
2021/05/21 12:01:45;;;;;;;10.33;1.83;;;;;;;;;;5095287;28;20212;-62
2021/05/21 12:04:12;;;;;;;12.33;2.00;;;;;;;;;;5095567;28;20224;-62
2021/05/21 12:06:40;;;;;;;7.23;1.50;;;;;;;;;;5095379;28;20208;-63
2021/05/21 12:09:07;;;;;;;6.57;1.57;;;;;;;;;;5095230;28;20311;-61
2021/05/21 12:11:35;;;;;;;8.13;1.80;;;;;;;;;;5094919;28;20741;-61
2021/05/21 12:14:01;;;;;;;7.20;1.70;;;;;;;;;;5095175;28;20231;-59
2021/05/21 12:16:30;;;;;;;9.67;1.97;;;;;;;;;;5095303;28;20554;-62
2021/05/21 12:18:57;;;;;;;6.07;1.20;;;;;;;;;;5095157;28;20204;-63
2021/05/21 12:21:24;;;;;;;9.17;2.00;;;;;;;;;;5094425;28;20235;-63
2021/05/21 12:23:52;;;;;;;9.67;1.77;;;;;;;;;;5095076;28;20702;-62
2021/05/21 12:26:19;;;;;;;7.63;1.50;;;;;;;;;;5095222;28;20204;-63
2021/05/21 12:28:46;;;;;;;10.67;1.80;;;;;;;;;;5095056;28;20559;-63
2021/05/21 12:31:13;;;;;;;7.33;1.67;;;;;;;;;;5094477;28;20262;-60
2021/05/21 12:33:40;;;;;;;9.30;1.60;;;;;;;;;;5094758;28;20208;-61
2021/05/21 12:36:08;;;;;;;8.03;2.07;;;;;;;;;;5094744;28;20208;-60
2021/05/21 12:38:34;;;;;;;5.47;1.60;;;;;;;;;;5094816;28;20212;-62
2021/05/21 12:41:01;;;;;;;6.97;1.77;;;;;;;;;;5094450;28;20212;-61
2021/05/21 12:43:28;;;;;;;11.17;1.70;;;;;;;;;;5094605;28;20228;-61
2021/05/21 12:46:01;;;;;;;10.90;1.60;;;;;;;;;;5094797;28;20305;-62
2021/05/21 12:48:31;;;;;;;8.27;1.73;;;;;;;;;;5094556;28;20204;-60
2021/05/21 12:50:58;;;;;;;8.17;1.73;;;;;;;;;;5093764;28;20283;-65
2021/05/21 12:53:29;;;;;;;10.70;1.87;;;;;;;;;;5094453;28;20208;-63
2021/05/21 12:55:55;;;;;;;11.47;2.00;;;;;;;;;;5094411;28;20228;-63
2021/05/21 12:58:22;;;;;;;8.07;1.80;;;;;;;;;;5094322;28;20219;-62
2021/05/21 13:00:50;;;;;;;11.07;1.90;;;;;;;;;;5093510;28;20303;-64
2021/05/21 13:03:20;;;;;;;9.00;1.60;;;;;;;;;;5094295;28;20298;-65
2021/05/21 13:05:46;;;;;;;9.23;1.80;;;;;;;;;;5094267;28;20228;-65
2021/05/21 13:08:13;;;;;;;9.00;1.70;;;;;;;;;;5094416;28;20273;-64
2021/05/21 13:10:40;;;;;;;7.33;1.80;;;;;;;;;;5093748;28;20205;-63
2021/05/21 13:13:06;;;;;;;8.50;1.60;;;;;;;;;;5091954;28;20208;-62
2021/05/21 13:15:38;;;;;;;8.17;1.87;;;;;;;;;;5093692;28;20248;-62
2021/05/21 13:18:05;;;;;;;10.97;1.63;;;;;;;;;;5094472;28;20242;-62
2021/05/21 13:20:33;;;;;;;7.97;1.60;;;;;;;;;;5093348;28;20211;-62
2021/05/21 13:23:00;;;;;;;10.63;1.93;;;;;;;;;;5094268;28;20584;-62
2021/05/21 13:25:29;;;;;;;7.70;1.47;;;;;;;;;;5093745;28;20326;-61
2021/05/21 13:27:56;;;;;;;5.00;1.30;;;;;;;;;;5094003;28;20641;-62
2021/05/21 13:30:23;;;;;;;6.57;1.60;;;;;;;;;;5093434;28;20204;-62
2021/05/21 13:32:49;;;;;;;7.97;1.73;;;;;;;;;;5094472;28;20291;-59
2021/05/21 13:35:16;;;;;;;7.13;1.60;;;;;;;;;;5093665;28;20220;-60
2021/05/21 13:37:43;;;;;;;8.77;1.70;;;;;;;;;;5094090;28;20245;-62
2021/05/21 13:40:11;;;;;;;8.10;1.33;;;;;;;;;;5093367;28;20253;-61
2021/05/21 13:42:38;;;;;;;11.70;1.70;;;;;;;;;;5093660;28;20210;-61
2021/05/21 13:45:05;;;;;;;9.43;1.70;;;;;;;;;;5093795;28;20232;-62
2021/05/21 13:47:31;;;;;;;12.43;1.80;;;;;;;;;;5093601;28;20211;-62
2021/05/21 13:49:58;;;;;;;7.57;1.70;;;;;;;;;;5092978;28;20725;-61
2021/05/21 13:52:24;;;;;;;7.13;1.60;;;;;;;;;;5093729;28;20256;-61
2021/05/21 13:54:52;;;;;;;6.87;1.43;;;;;;;;;;5093421;28;20229;-62
2021/05/21 13:57:18;;;;;;;10.60;2.63;;;;;;;;;;5093268;28;20204;-62
2021/05/21 13:59:45;;;;;;;5.30;1.30;;;;;;;;;;5093225;28;20212;-62
2021/05/21 14:02:11;;;;;;;10.73;1.83;;;;;;;;;;5093461;28;20205;-62
2021/05/21 14:04:38;;;;;;;5.83;1.63;;;;;;;;;;5092231;28;20228;-62
2021/05/21 14:07:05;;;;;;;7.53;1.40;;;;;;;;;;5093256;28;20230;-61
2021/05/21 14:09:31;;;;;;;8.40;1.63;;;;;;;;;;5092933;28;20209;-60
2021/05/21 14:11:59;;;;;;;10.47;1.97;;;;;;;;;;5092889;28;20576;-62
2021/05/21 14:14:26;;;;;;;11.30;1.97;;;;;;;;;;5092826;28;20799;-62
2021/05/21 14:16:53;;;;;;;8.43;1.70;;;;;;;;;;5092857;28;20204;-61
2021/05/21 14:19:20;;;;;;;6.63;1.80;;;;;;;;;;5092781;28;20689;-61
2021/05/21 14:21:47;;;;;;;9.80;2.00;;;;;;;;;;5092659;28;20204;-61
2021/05/21 14:24:14;;;;;;;7.87;1.67;;;;;;;;;;5092550;28;20235;-60
2021/05/21 14:26:41;;;;;;;14.80;2.67;;;;;;;;;;5093129;28;20204;-61
2021/05/21 14:29:09;;;;;;;11.00;2.37;;;;;;;;;;5092586;28;20208;-62
2021/05/21 14:31:36;;;;;;;8.60;2.20;;;;;;;;;;5092695;28;20258;-62
2021/05/21 14:34:05;;;;;;;9.47;1.53;;;;;;;;;;5092818;28;20913;-61
2021/05/21 14:36:32;;;;;;;7.23;1.90;;;;;;;;;;5092755;28;20691;-61
2021/05/21 14:38:58;;;;;;;9.73;1.80;;;;;;;;;;5092585;28;20212;-60
2021/05/21 14:41:25;;;;;;;9.10;1.90;;;;;;;;;;5092500;28;20220;-61